sensor_id;sensor_type;location;lat;lon;timestamp;P1;durP1;ratioP1;P2;durP2;ratioP2
10882;SDS011;5494;51.796;10.952;2023-07-24T00:02:13;2.37;;;1.03;;
10882;SDS011;5494;51.796;10.952;2023-07-24T00:04:41;2.17;;;1.30;;
10882;SDS011;5494;51.796;10.952;2023-07-24T00:07:13;2.27;;;1.10;;
10882;SDS011;5494;51.796;10.952;2023-07-24T00:09:41;2.37;;;1.27;;
10882;SDS011;5494;51.796;10.952;2023-07-24T00:12:12;1.30;;;0.90;;
10882;SDS011;5494;51.796;10.952;2023-07-24T00:14:40;1.50;;;1.30;;
10882;SDS011;5494;51.796;10.952;2023-07-24T00:17:08;1.00;;;0.90;;
10882;SDS011;5494;51.796;10.952;2023-07-24T00:19:38;1.17;;;1.07;;
10882;SDS011;5494;51.796;10.952;2023-07-24T00:22:06;1.33;;;1.23;;
10882;SDS011;5494;51.796;10.952;2023-07-24T00:24:35;1.23;;;1.13;;
10882;SDS011;5494;51.796;10.952;2023-07-24T00:27:03;1.30;;;1.03;;
10882;SDS011;5494;51.796;10.952;2023-07-24T00:29:31;1.13;;;1.00;;
10882;SDS011;5494;51.796;10.952;2023-07-24T00:31:59;1.93;;;1.20;;
10882;SDS011;5494;51.796;10.952;2023-07-24T00:34:27;1.17;;;1.00;;
10882;SDS011;5494;51.796;10.952;2023-07-24T00:36:57;2.53;;;1.80;;
10882;SDS011;5494;51.796;10.952;2023-07-24T00:39:25;1.37;;;1.20;;
10882;SDS011;5494;51.796;10.952;2023-07-24T00:41:55;1.63;;;1.10;;
10882;SDS011;5494;51.796;10.952;2023-07-24T00:44:24;1.63;;;1.00;;
10882;SDS011;5494;51.796;10.952;2023-07-24T00:46:54;1.63;;;0.93;;
10882;SDS011;5494;51.796;10.952;2023-07-24T00:49:22;1.67;;;1.17;;
10882;SDS011;5494;51.796;10.952;2023-07-24T00:51:52;1.30;;;1.20;;
10882;SDS011;5494;51.796;10.952;2023-07-24T00:54:22;1.53;;;1.20;;
10882;SDS011;5494;51.796;10.952;2023-07-24T00:56:51;1.33;;;1.20;;
10882;SDS011;5494;51.796;10.952;2023-07-24T00:59:19;1.17;;;1.07;;
10882;SDS011;5494;51.796;10.952;2023-07-24T01:01:48;1.47;;;1.00;;
10882;SDS011;5494;51.796;10.952;2023-07-24T01:04:17;1.53;;;1.10;;
10882;SDS011;5494;51.796;10.952;2023-07-24T01:06:46;1.17;;;1.07;;
10882;SDS011;5494;51.796;10.952;2023-07-24T01:09:15;1.17;;;1.07;;
10882;SDS011;5494;51.796;10.952;2023-07-24T01:11:46;1.30;;;1.00;;
10882;SDS011;5494;51.796;10.952;2023-07-24T01:14:23;1.17;;;1.03;;
10882;SDS011;5494;51.796;10.952;2023-07-24T01:17:06;1.10;;;1.00;;
10882;SDS011;5494;51.796;10.952;2023-07-24T01:19:37;1.30;;;1.10;;
10882;SDS011;5494;51.796;10.952;2023-07-24T01:22:14;10.20;;;1.57;;
10882;SDS011;5494;51.796;10.952;2023-07-24T01:25:04;1.37;;;1.27;;
10882;SDS011;5494;51.796;10.952;2023-07-24T01:27:43;1.20;;;1.10;;
10882;SDS011;5494;51.796;10.952;2023-07-24T01:30:16;1.37;;;1.27;;
10882;SDS011;5494;51.796;10.952;2023-07-24T01:32:46;1.23;;;1.10;;
10882;SDS011;5494;51.796;10.952;2023-07-24T01:35:15;1.53;;;1.20;;
10882;SDS011;5494;51.796;10.952;2023-07-24T01:37:44;1.70;;;1.20;;
10882;SDS011;5494;51.796;10.952;2023-07-24T01:40:15;1.57;;;1.10;;
10882;SDS011;5494;51.796;10.952;2023-07-24T01:42:47;1.43;;;1.00;;
10882;SDS011;5494;51.796;10.952;2023-07-24T01:45:16;2.00;;;1.00;;
10882;SDS011;5494;51.796;10.952;2023-07-24T01:47:44;1.87;;;1.40;;
10882;SDS011;5494;51.796;10.952;2023-07-24T01:50:12;1.50;;;1.17;;
10882;SDS011;5494;51.796;10.952;2023-07-24T01:52:41;1.20;;;1.10;;
10882;SDS011;5494;51.796;10.952;2023-07-24T01:55:10;1.43;;;1.30;;
10882;SDS011;5494;51.796;10.952;2023-07-24T01:57:38;1.30;;;1.10;;
10882;SDS011;5494;51.796;10.952;2023-07-24T02:00:09;1.70;;;1.60;;
10882;SDS011;5494;51.796;10.952;2023-07-24T02:02:39;1.40;;;1.30;;
10882;SDS011;5494;51.796;10.952;2023-07-24T02:05:07;1.23;;;1.10;;
10882;SDS011;5494;51.796;10.952;2023-07-24T02:07:36;1.47;;;1.30;;
10882;SDS011;5494;51.796;10.952;2023-07-24T02:10:04;2.00;;;1.40;;
10882;SDS011;5494;51.796;10.952;2023-07-24T02:12:34;1.53;;;1.20;;
10882;SDS011;5494;51.796;10.952;2023-07-24T02:15:02;1.57;;;1.10;;
10882;SDS011;5494;51.796;10.952;2023-07-24T02:17:32;2.77;;;1.27;;
10882;SDS011;5494;51.796;10.952;2023-07-24T02:20:00;1.83;;;1.53;;
10882;SDS011;5494;51.796;10.952;2023-07-24T02:22:28;1.47;;;1.30;;
10882;SDS011;5494;51.796;10.952;2023-07-24T02:24:57;2.10;;;1.53;;
10882;SDS011;5494;51.796;10.952;2023-07-24T02:27:27;2.47;;;1.40;;
10882;SDS011;5494;51.796;10.952;2023-07-24T02:29:57;1.30;;;1.20;;
10882;SDS011;5494;51.796;10.952;2023-07-24T02:32:26;1.63;;;1.40;;
10882;SDS011;5494;51.796;10.952;2023-07-24T02:34:56;1.87;;;1.43;;
10882;SDS011;5494;51.796;10.952;2023-07-24T02:37:24;3.23;;;1.17;;
10882;SDS011;5494;51.796;10.952;2023-07-24T02:39:52;2.27;;;1.30;;
10882;SDS011;5494;51.796;10.952;2023-07-24T02:42:20;1.70;;;1.33;;
10882;SDS011;5494;51.796;10.952;2023-07-24T02:44:49;1.80;;;1.40;;
10882;SDS011;5494;51.796;10.952;2023-07-24T02:47:20;1.77;;;1.50;;
10882;SDS011;5494;51.796;10.952;2023-07-24T02:49:48;1.77;;;1.20;;
10882;SDS011;5494;51.796;10.952;2023-07-24T02:52:18;1.27;;;1.10;;
10882;SDS011;5494;51.796;10.952;2023-07-24T02:54:46;3.17;;;1.13;;
10882;SDS011;5494;51.796;10.952;2023-07-24T02:57:14;1.50;;;1.40;;
10882;SDS011;5494;51.796;10.952;2023-07-24T02:59:42;1.97;;;1.50;;
10882;SDS011;5494;51.796;10.952;2023-07-24T03:02:11;2.27;;;1.50;;
10882;SDS011;5494;51.796;10.952;2023-07-24T03:04:39;3.50;;;1.37;;
10882;SDS011;5494;51.796;10.952;2023-07-24T03:07:07;1.40;;;1.20;;
10882;SDS011;5494;51.796;10.952;2023-07-24T03:09:37;2.53;;;1.37;;
10882;SDS011;5494;51.796;10.952;2023-07-24T03:12:05;2.50;;;1.50;;
10882;SDS011;5494;51.796;10.952;2023-07-24T03:14:34;1.40;;;1.30;;
10882;SDS011;5494;51.796;10.952;2023-07-24T03:17:02;1.57;;;1.30;;
10882;SDS011;5494;51.796;10.952;2023-07-24T03:19:30;2.20;;;1.60;;
10882;SDS011;5494;51.796;10.952;2023-07-24T03:21:59;1.83;;;1.43;;
10882;SDS011;5494;51.796;10.952;2023-07-24T03:24:27;1.70;;;1.40;;
10882;SDS011;5494;51.796;10.952;2023-07-24T03:26:57;1.27;;;1.17;;
10882;SDS011;5494;51.796;10.952;2023-07-24T03:29:26;3.97;;;1.50;;
10882;SDS011;5494;51.796;10.952;2023-07-24T03:31:54;1.80;;;1.40;;
10882;SDS011;5494;51.796;10.952;2023-07-24T03:34:24;3.73;;;1.50;;
10882;SDS011;5494;51.796;10.952;2023-07-24T03:36:52;4.40;;;2.03;;
10882;SDS011;5494;51.796;10.952;2023-07-24T03:39:20;3.83;;;1.50;;
10882;SDS011;5494;51.796;10.952;2023-07-24T03:41:48;4.00;;;1.90;;
10882;SDS011;5494;51.796;10.952;2023-07-24T03:44:18;1.50;;;1.40;;
10882;SDS011;5494;51.796;10.952;2023-07-24T03:46:46;1.63;;;1.50;;
10882;SDS011;5494;51.796;10.952;2023-07-24T03:49:14;1.80;;;1.50;;
10882;SDS011;5494;51.796;10.952;2023-07-24T03:51:42;1.50;;;1.40;;
10882;SDS011;5494;51.796;10.952;2023-07-24T03:54:10;2.00;;;1.50;;
10882;SDS011;5494;51.796;10.952;2023-07-24T03:56:39;2.53;;;1.53;;
10882;SDS011;5494;51.796;10.952;2023-07-24T03:59:07;2.03;;;1.70;;
10882;SDS011;5494;51.796;10.952;2023-07-24T04:01:37;1.83;;;1.53;;
10882;SDS011;5494;51.796;10.952;2023-07-24T04:04:05;1.67;;;1.50;;
10882;SDS011;5494;51.796;10.952;2023-07-24T04:06:33;1.90;;;1.37;;
10882;SDS011;5494;51.796;10.952;2023-07-24T04:09:02;1.63;;;1.43;;
10882;SDS011;5494;51.796;10.952;2023-07-24T04:11:30;1.77;;;1.67;;
10882;SDS011;5494;51.796;10.952;2023-07-24T04:13:59;3.00;;;1.80;;
10882;SDS011;5494;51.796;10.952;2023-07-24T04:16:27;2.30;;;1.40;;
10882;SDS011;5494;51.796;10.952;2023-07-24T04:18:57;1.67;;;1.53;;
10882;SDS011;5494;51.796;10.952;2023-07-24T04:21:25;2.83;;;1.50;;
10882;SDS011;5494;51.796;10.952;2023-07-24T04:23:52;1.60;;;1.50;;
10882;SDS011;5494;51.796;10.952;2023-07-24T04:26:22;1.97;;;1.77;;
10882;SDS011;5494;51.796;10.952;2023-07-24T04:28:50;1.80;;;1.50;;
10882;SDS011;5494;51.796;10.952;2023-07-24T04:31:18;2.07;;;1.70;;
10882;SDS011;5494;51.796;10.952;2023-07-24T04:33:46;3.30;;;1.40;;
10882;SDS011;5494;51.796;10.952;2023-07-24T04:36:16;1.80;;;1.30;;
10882;SDS011;5494;51.796;10.952;2023-07-24T04:38:44;2.00;;;1.23;;
10882;SDS011;5494;51.796;10.952;2023-07-24T04:41:13;2.20;;;1.60;;
10882;SDS011;5494;51.796;10.952;2023-07-24T04:43:41;2.90;;;1.33;;
10882;SDS011;5494;51.796;10.952;2023-07-24T04:46:12;1.40;;;1.30;;
10882;SDS011;5494;51.796;10.952;2023-07-24T04:48:40;1.60;;;1.50;;
10882;SDS011;5494;51.796;10.952;2023-07-24T04:51:09;2.37;;;1.87;;
10882;SDS011;5494;51.796;10.952;2023-07-24T04:53:39;3.53;;;1.73;;
10882;SDS011;5494;51.796;10.952;2023-07-24T04:56:07;2.17;;;1.47;;
10882;SDS011;5494;51.796;10.952;2023-07-24T04:58:35;3.83;;;1.70;;
10882;SDS011;5494;51.796;10.952;2023-07-24T05:01:04;3.37;;;1.80;;
10882;SDS011;5494;51.796;10.952;2023-07-24T05:03:32;1.57;;;1.40;;
10882;SDS011;5494;51.796;10.952;2023-07-24T05:06:00;2.63;;;1.50;;
10882;SDS011;5494;51.796;10.952;2023-07-24T05:08:29;2.80;;;1.77;;
10882;SDS011;5494;51.796;10.952;2023-07-24T05:10:58;2.43;;;1.60;;
10882;SDS011;5494;51.796;10.952;2023-07-24T05:13:26;2.53;;;1.80;;
10882;SDS011;5494;51.796;10.952;2023-07-24T05:15:54;2.33;;;1.60;;
10882;SDS011;5494;51.796;10.952;2023-07-24T05:18:22;2.00;;;1.50;;
10882;SDS011;5494;51.796;10.952;2023-07-24T05:20:51;1.63;;;1.53;;
10882;SDS011;5494;51.796;10.952;2023-07-24T05:23:19;3.60;;;1.60;;
10882;SDS011;5494;51.796;10.952;2023-07-24T05:25:55;3.60;;;1.33;;
10882;SDS011;5494;51.796;10.952;2023-07-24T05:28:26;2.30;;;1.40;;
10882;SDS011;5494;51.796;10.952;2023-07-24T05:30:55;1.93;;;1.50;;
10882;SDS011;5494;51.796;10.952;2023-07-24T05:33:27;1.77;;;1.67;;
10882;SDS011;5494;51.796;10.952;2023-07-24T05:35:57;3.03;;;1.50;;
10882;SDS011;5494;51.796;10.952;2023-07-24T05:38:26;2.73;;;1.70;;
10882;SDS011;5494;51.796;10.952;2023-07-24T05:40:55;2.87;;;1.47;;
10882;SDS011;5494;51.796;10.952;2023-07-24T05:43:23;2.07;;;1.50;;
10882;SDS011;5494;51.796;10.952;2023-07-24T05:45:53;3.20;;;1.70;;
10882;SDS011;5494;51.796;10.952;2023-07-24T05:48:23;1.70;;;1.60;;
10882;SDS011;5494;51.796;10.952;2023-07-24T05:50:52;1.83;;;1.73;;
10882;SDS011;5494;51.796;10.952;2023-07-24T05:53:20;2.17;;;1.97;;
10882;SDS011;5494;51.796;10.952;2023-07-24T05:55:56;2.20;;;2.00;;
10882;SDS011;5494;51.796;10.952;2023-07-24T05:58:26;3.47;;;1.90;;
10882;SDS011;5494;51.796;10.952;2023-07-24T06:00:56;2.13;;;1.87;;
10882;SDS011;5494;51.796;10.952;2023-07-24T06:03:24;4.13;;;2.20;;
10882;SDS011;5494;51.796;10.952;2023-07-24T06:05:53;2.10;;;1.80;;
10882;SDS011;5494;51.796;10.952;2023-07-24T06:08:21;2.93;;;2.20;;
10882;SDS011;5494;51.796;10.952;2023-07-24T06:10:50;3.50;;;2.10;;
10882;SDS011;5494;51.796;10.952;2023-07-24T06:13:18;2.90;;;2.10;;
10882;SDS011;5494;51.796;10.952;2023-07-24T06:15:47;4.73;;;2.00;;
10882;SDS011;5494;51.796;10.952;2023-07-24T06:18:18;3.60;;;2.27;;
10882;SDS011;5494;51.796;10.952;2023-07-24T06:20:47;2.87;;;2.17;;
10882;SDS011;5494;51.796;10.952;2023-07-24T06:23:19;3.10;;;2.23;;
10882;SDS011;5494;51.796;10.952;2023-07-24T06:25:47;3.00;;;2.30;;
10882;SDS011;5494;51.796;10.952;2023-07-24T06:28:15;2.80;;;1.93;;
10882;SDS011;5494;51.796;10.952;2023-07-24T06:30:43;2.93;;;2.40;;
10882;SDS011;5494;51.796;10.952;2023-07-24T06:33:12;3.67;;;2.27;;
10882;SDS011;5494;51.796;10.952;2023-07-24T06:35:41;7.17;;;2.83;;
10882;SDS011;5494;51.796;10.952;2023-07-24T06:38:09;3.40;;;2.20;;
10882;SDS011;5494;51.796;10.952;2023-07-24T06:40:37;3.60;;;2.20;;
10882;SDS011;5494;51.796;10.952;2023-07-24T06:43:05;2.90;;;2.60;;
10882;SDS011;5494;51.796;10.952;2023-07-24T06:45:33;2.70;;;2.10;;
10882;SDS011;5494;51.796;10.952;2023-07-24T06:48:02;2.90;;;2.03;;
10882;SDS011;5494;51.796;10.952;2023-07-24T06:50:33;3.30;;;2.20;;
10882;SDS011;5494;51.796;10.952;2023-07-24T06:53:03;3.20;;;1.90;;
10882;SDS011;5494;51.796;10.952;2023-07-24T06:55:31;2.47;;;1.90;;
10882;SDS011;5494;51.796;10.952;2023-07-24T06:57:59;3.57;;;2.33;;
10882;SDS011;5494;51.796;10.952;2023-07-24T07:00:28;2.87;;;2.03;;
10882;SDS011;5494;51.796;10.952;2023-07-24T07:02:56;2.40;;;2.07;;
10882;SDS011;5494;51.796;10.952;2023-07-24T07:05:24;2.93;;;1.97;;
10882;SDS011;5494;51.796;10.952;2023-07-24T07:07:52;3.10;;;2.47;;
10882;SDS011;5494;51.796;10.952;2023-07-24T07:10:22;3.03;;;2.50;;
10882;SDS011;5494;51.796;10.952;2023-07-24T07:12:50;2.80;;;2.50;;
10882;SDS011;5494;51.796;10.952;2023-07-24T07:15:19;4.17;;;2.57;;
10882;SDS011;5494;51.796;10.952;2023-07-24T07:17:47;2.40;;;1.97;;
10882;SDS011;5494;51.796;10.952;2023-07-24T07:20:15;3.40;;;2.40;;
10882;SDS011;5494;51.796;10.952;2023-07-24T07:22:44;2.70;;;2.30;;
10882;SDS011;5494;51.796;10.952;2023-07-24T07:25:12;2.43;;;2.23;;
10882;SDS011;5494;51.796;10.952;2023-07-24T07:27:42;3.27;;;2.23;;
10882;SDS011;5494;51.796;10.952;2023-07-24T07:30:10;3.53;;;2.77;;
10882;SDS011;5494;51.796;10.952;2023-07-24T07:32:39;9.20;;;4.40;;
10882;SDS011;5494;51.796;10.952;2023-07-24T07:35:07;5.63;;;2.53;;
10882;SDS011;5494;51.796;10.952;2023-07-24T07:37:35;2.70;;;2.50;;
10882;SDS011;5494;51.796;10.952;2023-07-24T07:40:04;3.73;;;2.40;;
10882;SDS011;5494;51.796;10.952;2023-07-24T07:42:34;3.10;;;2.00;;
10882;SDS011;5494;51.796;10.952;2023-07-24T07:45:06;4.63;;;2.63;;
10882;SDS011;5494;51.796;10.952;2023-07-24T07:47:35;4.33;;;2.40;;
10882;SDS011;5494;51.796;10.952;2023-07-24T07:50:04;3.30;;;2.33;;
10882;SDS011;5494;51.796;10.952;2023-07-24T07:52:33;4.10;;;2.50;;
10882;SDS011;5494;51.796;10.952;2023-07-24T07:55:01;3.27;;;2.30;;
10882;SDS011;5494;51.796;10.952;2023-07-24T07:57:29;3.03;;;2.40;;
10882;SDS011;5494;51.796;10.952;2023-07-24T07:59:57;3.87;;;2.53;;
10882;SDS011;5494;51.796;10.952;2023-07-24T08:02:27;3.00;;;2.50;;
10882;SDS011;5494;51.796;10.952;2023-07-24T08:04:55;4.03;;;2.50;;
10882;SDS011;5494;51.796;10.952;2023-07-24T08:07:30;3.17;;;2.43;;
10882;SDS011;5494;51.796;10.952;2023-07-24T08:09:58;4.20;;;2.60;;
10882;SDS011;5494;51.796;10.952;2023-07-24T08:12:26;3.60;;;2.40;;
10882;SDS011;5494;51.796;10.952;2023-07-24T08:14:56;2.90;;;2.60;;
10882;SDS011;5494;51.796;10.952;2023-07-24T08:17:24;4.13;;;2.73;;
10882;SDS011;5494;51.796;10.952;2023-07-24T08:19:54;3.23;;;2.93;;
10882;SDS011;5494;51.796;10.952;2023-07-24T08:22:22;6.33;;;3.27;;
10882;SDS011;5494;51.796;10.952;2023-07-24T08:24:50;4.07;;;2.60;;
10882;SDS011;5494;51.796;10.952;2023-07-24T08:27:22;4.30;;;2.80;;
10882;SDS011;5494;51.796;10.952;2023-07-24T08:29:50;3.37;;;2.87;;
10882;SDS011;5494;51.796;10.952;2023-07-24T08:32:19;3.60;;;2.80;;
10882;SDS011;5494;51.796;10.952;2023-07-24T08:34:47;5.13;;;3.33;;
10882;SDS011;5494;51.796;10.952;2023-07-24T08:37:17;3.57;;;3.27;;
10882;SDS011;5494;51.796;10.952;2023-07-24T08:39:45;3.23;;;2.93;;
10882;SDS011;5494;51.796;10.952;2023-07-24T08:42:13;5.07;;;3.10;;
10882;SDS011;5494;51.796;10.952;2023-07-24T08:44:41;3.93;;;3.33;;
10882;SDS011;5494;51.796;10.952;2023-07-24T08:47:11;4.43;;;3.30;;
10882;SDS011;5494;51.796;10.952;2023-07-24T08:49:40;3.60;;;3.30;;
10882;SDS011;5494;51.796;10.952;2023-07-24T08:52:10;4.43;;;3.57;;
10882;SDS011;5494;51.796;10.952;2023-07-24T08:54:57;4.87;;;3.50;;
10882;SDS011;5494;51.796;10.952;2023-07-24T08:57:29;8.87;;;3.70;;
10882;SDS011;5494;51.796;10.952;2023-07-24T08:59:57;4.20;;;3.53;;
10882;SDS011;5494;51.796;10.952;2023-07-24T09:02:31;6.20;;;3.70;;
10882;SDS011;5494;51.796;10.952;2023-07-24T09:05:00;5.50;;;3.83;;
10882;SDS011;5494;51.796;10.952;2023-07-24T09:07:29;5.17;;;3.53;;
10882;SDS011;5494;51.796;10.952;2023-07-24T09:09:59;4.50;;;3.73;;
10882;SDS011;5494;51.796;10.952;2023-07-24T09:12:27;4.40;;;3.70;;
10882;SDS011;5494;51.796;10.952;2023-07-24T09:15:02;3.90;;;3.40;;
10882;SDS011;5494;51.796;10.952;2023-07-24T09:17:33;6.77;;;3.97;;
10882;SDS011;5494;51.796;10.952;2023-07-24T09:20:02;4.00;;;3.53;;
10882;SDS011;5494;51.796;10.952;2023-07-24T09:22:31;5.77;;;3.90;;
10882;SDS011;5494;51.796;10.952;2023-07-24T09:25:01;4.57;;;3.93;;
10882;SDS011;5494;51.796;10.952;2023-07-24T09:27:31;5.00;;;4.00;;
10882;SDS011;5494;51.796;10.952;2023-07-24T09:30:01;5.20;;;4.80;;
10882;SDS011;5494;51.796;10.952;2023-07-24T09:32:29;5.93;;;3.87;;
10882;SDS011;5494;51.796;10.952;2023-07-24T09:34:58;4.60;;;3.40;;
10882;SDS011;5494;51.796;10.952;2023-07-24T09:37:27;4.97;;;4.00;;
10882;SDS011;5494;51.796;10.952;2023-07-24T09:39:58;5.80;;;3.80;;
10882;SDS011;5494;51.796;10.952;2023-07-24T09:42:31;4.37;;;3.63;;
10882;SDS011;5494;51.796;10.952;2023-07-24T09:45:18;6.43;;;4.43;;
10882;SDS011;5494;51.796;10.952;2023-07-24T09:47:49;8.83;;;3.80;;
10882;SDS011;5494;51.796;10.952;2023-07-24T09:50:25;7.83;;;3.90;;
10882;SDS011;5494;51.796;10.952;2023-07-24T09:52:54;5.53;;;4.10;;
10882;SDS011;5494;51.796;10.952;2023-07-24T09:55:25;4.27;;;3.87;;
10882;SDS011;5494;51.796;10.952;2023-07-24T09:58:03;5.00;;;3.80;;
10882;SDS011;5494;51.796;10.952;2023-07-24T10:00:33;6.37;;;4.63;;
10882;SDS011;5494;51.796;10.952;2023-07-24T10:03:01;6.47;;;4.10;;
10882;SDS011;5494;51.796;10.952;2023-07-24T10:05:31;5.17;;;4.03;;
10882;SDS011;5494;51.796;10.952;2023-07-24T10:08:00;4.23;;;3.83;;
10882;SDS011;5494;51.796;10.952;2023-07-24T10:10:29;3.93;;;3.50;;
10882;SDS011;5494;51.796;10.952;2023-07-24T10:12:58;6.20;;;3.97;;
10882;SDS011;5494;51.796;10.952;2023-07-24T10:15:28;4.70;;;4.00;;
10882;SDS011;5494;51.796;10.952;2023-07-24T10:18:01;5.07;;;3.80;;
10882;SDS011;5494;51.796;10.952;2023-07-24T10:20:33;3.77;;;3.40;;
10882;SDS011;5494;51.796;10.952;2023-07-24T10:23:02;4.37;;;3.87;;
10882;SDS011;5494;51.796;10.952;2023-07-24T10:25:32;4.47;;;3.90;;
10882;SDS011;5494;51.796;10.952;2023-07-24T10:28:02;4.23;;;3.67;;
10882;SDS011;5494;51.796;10.952;2023-07-24T10:30:35;4.67;;;4.03;;
10882;SDS011;5494;51.796;10.952;2023-07-24T10:33:07;5.43;;;3.90;;
10882;SDS011;5494;51.796;10.952;2023-07-24T10:35:42;5.37;;;3.43;;
10882;SDS011;5494;51.796;10.952;2023-07-24T10:38:12;7.60;;;4.13;;
10882;SDS011;5494;51.796;10.952;2023-07-24T10:40:44;4.73;;;3.70;;
10882;SDS011;5494;51.796;10.952;2023-07-24T10:43:17;4.50;;;3.83;;
10882;SDS011;5494;51.796;10.952;2023-07-24T10:45:49;4.83;;;3.73;;
10882;SDS011;5494;51.796;10.952;2023-07-24T10:48:19;4.00;;;3.67;;
10882;SDS011;5494;51.796;10.952;2023-07-24T10:50:50;5.30;;;3.50;;
10882;SDS011;5494;51.796;10.952;2023-07-24T10:53:21;3.87;;;3.47;;
10882;SDS011;5494;51.796;10.952;2023-07-24T10:55:50;4.40;;;4.00;;
10882;SDS011;5494;51.796;10.952;2023-07-24T10:58:19;4.90;;;3.67;;
10882;SDS011;5494;51.796;10.952;2023-07-24T11:00:48;6.63;;;4.23;;
10882;SDS011;5494;51.796;10.952;2023-07-24T11:03:17;6.57;;;3.50;;
10882;SDS011;5494;51.796;10.952;2023-07-24T11:05:46;3.50;;;3.20;;
10882;SDS011;5494;51.796;10.952;2023-07-24T11:08:15;4.10;;;3.50;;
10882;SDS011;5494;51.796;10.952;2023-07-24T11:10:45;3.77;;;3.40;;
10882;SDS011;5494;51.796;10.952;2023-07-24T11:13:15;4.70;;;3.73;;
10882;SDS011;5494;51.796;10.952;2023-07-24T11:15:44;4.00;;;3.60;;
10882;SDS011;5494;51.796;10.952;2023-07-24T11:18:14;5.23;;;3.37;;
10882;SDS011;5494;51.796;10.952;2023-07-24T11:20:45;5.10;;;3.87;;
10882;SDS011;5494;51.796;10.952;2023-07-24T11:23:14;4.67;;;3.90;;
10882;SDS011;5494;51.796;10.952;2023-07-24T11:25:43;6.77;;;3.90;;
10882;SDS011;5494;51.796;10.952;2023-07-24T11:28:13;6.80;;;4.27;;
10882;SDS011;5494;51.796;10.952;2023-07-24T11:30:42;6.93;;;3.97;;
10882;SDS011;5494;51.796;10.952;2023-07-24T11:33:11;5.37;;;3.73;;
10882;SDS011;5494;51.796;10.952;2023-07-24T11:35:45;6.50;;;3.90;;
10882;SDS011;5494;51.796;10.952;2023-07-24T11:38:14;6.77;;;3.87;;
10882;SDS011;5494;51.796;10.952;2023-07-24T11:40:43;6.33;;;4.03;;
10882;SDS011;5494;51.796;10.952;2023-07-24T11:43:15;5.10;;;4.03;;
10882;SDS011;5494;51.796;10.952;2023-07-24T11:45:45;5.87;;;4.20;;
10882;SDS011;5494;51.796;10.952;2023-07-24T11:48:16;5.10;;;3.93;;
10882;SDS011;5494;51.796;10.952;2023-07-24T11:50:46;7.57;;;4.10;;
10882;SDS011;5494;51.796;10.952;2023-07-24T11:53:22;5.47;;;4.20;;
10882;SDS011;5494;51.796;10.952;2023-07-24T11:55:52;5.23;;;3.63;;
10882;SDS011;5494;51.796;10.952;2023-07-24T11:58:25;5.27;;;4.17;;
10882;SDS011;5494;51.796;10.952;2023-07-24T12:00:54;5.07;;;4.10;;
10882;SDS011;5494;51.796;10.952;2023-07-24T12:03:25;6.27;;;4.27;;
10882;SDS011;5494;51.796;10.952;2023-07-24T12:05:56;5.33;;;4.30;;
10882;SDS011;5494;51.796;10.952;2023-07-24T12:08:29;5.03;;;4.13;;
10882;SDS011;5494;51.796;10.952;2023-07-24T12:10:59;5.50;;;4.23;;
10882;SDS011;5494;51.796;10.952;2023-07-24T12:13:27;4.73;;;4.30;;
10882;SDS011;5494;51.796;10.952;2023-07-24T12:15:57;6.37;;;4.37;;
10882;SDS011;5494;51.796;10.952;2023-07-24T12:18:27;6.13;;;4.20;;
10882;SDS011;5494;51.796;10.952;2023-07-24T12:20:55;5.23;;;4.30;;
10882;SDS011;5494;51.796;10.952;2023-07-24T12:23:23;5.83;;;4.23;;
10882;SDS011;5494;51.796;10.952;2023-07-24T12:25:52;5.20;;;4.37;;
10882;SDS011;5494;51.796;10.952;2023-07-24T12:28:20;4.27;;;3.87;;
10882;SDS011;5494;51.796;10.952;2023-07-24T12:30:48;4.97;;;4.10;;
10882;SDS011;5494;51.796;10.952;2023-07-24T12:33:16;4.80;;;4.10;;
10882;SDS011;5494;51.796;10.952;2023-07-24T12:35:45;5.43;;;4.00;;
10882;SDS011;5494;51.796;10.952;2023-07-24T12:38:13;5.33;;;3.93;;
10882;SDS011;5494;51.796;10.952;2023-07-24T12:40:42;5.23;;;4.30;;
10882;SDS011;5494;51.796;10.952;2023-07-24T12:43:10;6.27;;;3.93;;
10882;SDS011;5494;51.796;10.952;2023-07-24T12:45:38;4.90;;;4.40;;
10882;SDS011;5494;51.796;10.952;2023-07-24T12:48:06;7.00;;;4.10;;
10882;SDS011;5494;51.796;10.952;2023-07-24T12:50:34;6.30;;;3.77;;
10882;SDS011;5494;51.796;10.952;2023-07-24T12:53:03;5.07;;;4.57;;
10882;SDS011;5494;51.796;10.952;2023-07-24T12:55:35;4.60;;;4.20;;
10882;SDS011;5494;51.796;10.952;2023-07-24T12:58:03;6.80;;;4.70;;
10882;SDS011;5494;51.796;10.952;2023-07-24T13:00:31;6.67;;;4.03;;
10882;SDS011;5494;51.796;10.952;2023-07-24T13:02:59;4.27;;;3.63;;
10882;SDS011;5494;51.796;10.952;2023-07-24T13:05:28;7.50;;;4.43;;
10882;SDS011;5494;51.796;10.952;2023-07-24T13:07:57;5.00;;;4.30;;
10882;SDS011;5494;51.796;10.952;2023-07-24T13:10:26;5.37;;;4.03;;
10882;SDS011;5494;51.796;10.952;2023-07-24T13:12:55;5.47;;;4.27;;
10882;SDS011;5494;51.796;10.952;2023-07-24T13:15:23;6.40;;;3.83;;
10882;SDS011;5494;51.796;10.952;2023-07-24T13:17:52;5.00;;;4.03;;
10882;SDS011;5494;51.796;10.952;2023-07-24T13:20:20;4.60;;;4.13;;
10882;SDS011;5494;51.796;10.952;2023-07-24T13:22:49;9.40;;;4.40;;
10882;SDS011;5494;51.796;10.952;2023-07-24T13:25:17;6.73;;;4.20;;
10882;SDS011;5494;51.796;10.952;2023-07-24T13:27:46;7.37;;;4.00;;
10882;SDS011;5494;51.796;10.952;2023-07-24T13:30:15;8.30;;;4.60;;
10882;SDS011;5494;51.796;10.952;2023-07-24T13:32:44;5.20;;;3.60;;
10882;SDS011;5494;51.796;10.952;2023-07-24T13:35:12;4.90;;;4.30;;
10882;SDS011;5494;51.796;10.952;2023-07-24T13:37:41;4.63;;;3.80;;
10882;SDS011;5494;51.796;10.952;2023-07-24T13:40:09;4.10;;;3.67;;
10882;SDS011;5494;51.796;10.952;2023-07-24T13:42:38;4.37;;;3.90;;
10882;SDS011;5494;51.796;10.952;2023-07-24T13:45:09;4.33;;;3.67;;
10882;SDS011;5494;51.796;10.952;2023-07-24T13:47:37;4.10;;;3.70;;
10882;SDS011;5494;51.796;10.952;2023-07-24T13:50:05;4.60;;;4.03;;
10882;SDS011;5494;51.796;10.952;2023-07-24T13:52:34;7.33;;;4.13;;
10882;SDS011;5494;51.796;10.952;2023-07-24T13:55:03;4.87;;;3.80;;
10882;SDS011;5494;51.796;10.952;2023-07-24T13:57:32;4.70;;;3.77;;
10882;SDS011;5494;51.796;10.952;2023-07-24T14:00:00;4.63;;;3.90;;
10882;SDS011;5494;51.796;10.952;2023-07-24T14:02:38;5.80;;;4.10;;
10882;SDS011;5494;51.796;10.952;2023-07-24T14:05:07;5.37;;;4.00;;
10882;SDS011;5494;51.796;10.952;2023-07-24T14:07:36;5.17;;;3.90;;
10882;SDS011;5494;51.796;10.952;2023-07-24T14:10:04;8.17;;;4.37;;
10882;SDS011;5494;51.796;10.952;2023-07-24T14:12:35;6.30;;;4.07;;
10882;SDS011;5494;51.796;10.952;2023-07-24T14:15:04;11.07;;;7.07;;
10882;SDS011;5494;51.796;10.952;2023-07-24T14:17:33;6.37;;;5.00;;
10882;SDS011;5494;51.796;10.952;2023-07-24T14:20:03;12.13;;;6.50;;
10882;SDS011;5494;51.796;10.952;2023-07-24T14:22:33;5.00;;;4.07;;
10882;SDS011;5494;51.796;10.952;2023-07-24T14:25:01;5.93;;;3.90;;
10882;SDS011;5494;51.796;10.952;2023-07-24T14:27:29;6.93;;;3.63;;
10882;SDS011;5494;51.796;10.952;2023-07-24T14:29:58;5.97;;;4.40;;
10882;SDS011;5494;51.796;10.952;2023-07-24T14:32:28;5.00;;;4.10;;
10882;SDS011;5494;51.796;10.952;2023-07-24T14:34:58;4.37;;;3.90;;
10882;SDS011;5494;51.796;10.952;2023-07-24T14:37:27;5.33;;;4.17;;
10882;SDS011;5494;51.796;10.952;2023-07-24T14:39:55;4.37;;;3.97;;
10882;SDS011;5494;51.796;10.952;2023-07-24T14:42:23;5.90;;;4.53;;
10882;SDS011;5494;51.796;10.952;2023-07-24T14:44:51;6.17;;;4.03;;
10882;SDS011;5494;51.796;10.952;2023-07-24T14:47:20;4.70;;;3.90;;
10882;SDS011;5494;51.796;10.952;2023-07-24T14:49:48;4.23;;;3.83;;
10882;SDS011;5494;51.796;10.952;2023-07-24T14:52:17;5.30;;;4.40;;
10882;SDS011;5494;51.796;10.952;2023-07-24T14:54:48;7.90;;;4.57;;
10882;SDS011;5494;51.796;10.952;2023-07-24T14:57:17;8.70;;;4.97;;
10882;SDS011;5494;51.796;10.952;2023-07-24T14:59:51;5.37;;;4.70;;
10882;SDS011;5494;51.796;10.952;2023-07-24T15:02:20;7.13;;;4.90;;